Good Thunder, MN

11:50 PM CDT on April 21, 2015 (GMT -0500)
MNDOT | | Change Station
CLOSE
Current Station
Personal Weather Station
Location: Mankato, MN
Elevation: 796 ft
Nearby Weather Stations
Active Advisory: Fire Weather Watch Active Notice: Public Information Statement

Elev 796 ft 44.15 °N, 94.03 °W | Updated 25 minutes ago

Overcast
Overcast
36 °F
Feels Like 29 °F
N
9
Wind Variable Wind from West
Gusts 20.0 mph

Today
High -- | Low -- °F
--% Chance of Precip.
Yesterday
High -- | Low -- °F
Precip. -- in
6:23 AM 8:07 PM
Waxing Crescent, 15% visible
Pressure 29.84 in
Visibility 10.0 miles
Clouds Overcast 4800 ft
Windchill 29 °F
Dew Point 23 °F
Humidity 60%
Rainfall in
Snow Depth Not available.
UV 0 out of 12
Pollen 8.40 out of 12
Air Quality Not available.
Flu Activity Local Activity
METAR KMKT 220435Z AUTO 32019KT 10SM OVC048 02/M06 A2984 RMK AO1

More Conditions Fewer Conditions

Pressure 29.84 in
Visibility 10.0 miles
Clouds Overcast 4800 ft
Windchill 29 °F
Dew Point 23 °F
Humidity 60%
Rainfall in
Snow Depth Not available.
UV 0 out of 12
Pollen 8.40 out of 12
Air Quality Not available.
Flu Activity Local Activity
METAR KMKT 220435Z AUTO 32019KT 10SM OVC048 02/M06 A2984 RMK AO1

More Conditions Fewer Conditions

10-Day Weather Forecast

Almanac

Astronomy

Apr. 21, 2015 Rise Set
Actual Time
Civil Twilight
Nautical Twilight
Astronomical Twilight
Moon
Length of Visible Light
Length of Day
Tomorrow will be .
, % of the Moon is Illuminated

Today's Extremes

State Highs State Lows

Community

WunderPhotos

Upload Photos

1,815,668 photos uploaded!

WunderBlogs® & News

Nearby

Air Quality

  Air Quality AQ Index Pollutant
Not available.

Snow Depth

Station Depth Elevation

Earthquake Activity

City Distance Mag. Time & Date
Minimum magnitude displayed is 2.5.

Coastal Water Temperatures

Place Temperature

Stations

Nearby Weather Stations

Station Location Temp. Windchill Dew Point Humidity Wind Precip. Elev Updated Type
                   
Fire Weather Watch
Statement as of 11:20 PM CDT on April 21, 2015

... Fire Weather Watch remains in effect from Wednesday afternoon
through Wednesday evening for low humidity and strong wind...

* affected area... fire weather zones 041... 042... 043... 044...
045... 047... 048... 049... 050... 051... 052... 053... 054... 055...
056... 057... 058... 059... 060... 061... 062... 063... 064... 065...
066... 067... 068... 069... 070... 073... 074... 075... 076... 077...
082... 083... 084... 091 and 092.

* Wind... northwest 18 to 22 mph with gusts to 35 mph in the
afternoon.

* Humidity... 20 to 25 percent.

* Impacts... any fires that develop will likely spread rapidly.
Outdoor burning is not recommended.

Precautionary/preparedness actions...

A Fire Weather Watch means that critical fire weather conditions
are possible. Listen for later forecasts and possible red flag
warnings.